createdAt,value
2023-07-12T00:01:23.057Z,100841.44
2023-07-12T00:03:51.181Z,100841.96
2023-07-12T00:06:20.798Z,100837.97
2023-07-12T00:08:48.453Z,100836.59
2023-07-12T00:11:18.112Z,100833.44
2023-07-12T00:13:45.819Z,100826.80
2023-07-12T00:16:21.774Z,100821.55
2023-07-12T00:18:49.780Z,100818.05
2023-07-12T00:21:26.312Z,100816.45
2023-07-12T00:23:55.021Z,100811.91
2023-07-12T00:26:30.440Z,100806.70
2023-07-12T00:28:59.220Z,100799.77
2023-07-12T00:31:27.260Z,100797.38
2023-07-12T00:33:57.106Z,100794.29
2023-07-12T00:36:26.501Z,100792.94
2023-07-12T00:38:54.179Z,100789.21
2023-07-12T00:41:44.152Z,100792.39
2023-07-12T00:44:14.668Z,100795.27
2023-07-12T00:46:43.545Z,100795.23
2023-07-12T00:49:11.444Z,100799.41
2023-07-12T00:51:51.505Z,100805.54
2023-07-12T00:54:20.654Z,100805.43
2023-07-12T00:56:48.358Z,100809.00
2023-07-12T00:59:20.826Z,100811.48
2023-07-12T01:01:50.239Z,100817.48
2023-07-12T01:04:26.078Z,100819.79
2023-07-12T01:06:53.544Z,100821.34
2023-07-12T01:09:21.190Z,100818.43
2023-07-12T01:11:48.745Z,100812.20
2023-07-12T01:14:18.471Z,100806.75
2023-07-12T01:16:50.452Z,100807.35
2023-07-12T01:19:18.195Z,100800.35
2023-07-12T01:21:47.886Z,100793.84
2023-07-12T01:24:15.856Z,100791.15
2023-07-12T01:26:46.700Z,100788.27
2023-07-12T01:29:15.080Z,100787.16
2023-07-12T01:31:43.345Z,100786.39
2023-07-12T01:34:11.022Z,100788.58
2023-07-12T01:36:38.675Z,100780.99
2023-07-12T01:39:06.873Z,100777.17
2023-07-12T01:41:34.915Z,100774.95
2023-07-12T01:44:02.501Z,100771.81
2023-07-12T01:46:31.284Z,100772.63
2023-07-12T01:48:59.025Z,100769.20
2023-07-12T01:51:26.787Z,100761.92
2023-07-12T01:53:54.346Z,100756.36
2023-07-12T01:56:22.418Z,100751.50
2023-07-12T01:58:50.085Z,100748.95
2023-07-12T02:01:17.754Z,100743.09
2023-07-12T02:03:45.952Z,100740.16
2023-07-12T02:06:13.800Z,100734.63
2023-07-12T02:08:41.652Z,100733.27
2023-07-12T02:11:09.591Z,100737.63
2023-07-12T02:13:37.992Z,100733.88
2023-07-12T02:16:05.901Z,100736.48
2023-07-12T02:18:36.676Z,100738.77
2023-07-12T02:21:04.291Z,100738.82
2023-07-12T02:23:35.102Z,100736.98
2023-07-12T02:26:04.399Z,100737.23
2023-07-12T02:28:31.943Z,100737.15
2023-07-12T02:31:22.385Z,100736.83
2023-07-12T02:33:50.671Z,100738.20
2023-07-12T02:36:18.459Z,100738.21
2023-07-12T02:38:48.648Z,100738.08
2023-07-12T02:41:17.521Z,100741.56
2023-07-12T02:43:45.926Z,100745.39
2023-07-12T02:46:13.547Z,100745.05
2023-07-12T02:48:41.396Z,100748.66
2023-07-12T02:51:09.318Z,100750.02
2023-07-12T02:53:39.962Z,100754.81
2023-07-12T02:56:09.468Z,100762.96
2023-07-12T02:58:37.614Z,100767.43
2023-07-12T03:01:07.824Z,100773.63
2023-07-12T03:03:36.067Z,100786.48
2023-07-12T03:06:08.444Z,100801.06
2023-07-12T03:08:36.218Z,100815.35
2023-07-12T03:11:04.970Z,100826.73
2023-07-12T03:13:32.859Z,100839.24
2023-07-12T03:16:01.273Z,100846.38
2023-07-12T03:18:29.208Z,100853.41
2023-07-12T03:21:04.145Z,100858.90
2023-07-12T03:23:32.104Z,100871.20
2023-07-12T03:26:00.276Z,100890.13
2023-07-12T03:28:28.057Z,100909.25
2023-07-12T03:31:03.859Z,100925.30
2023-07-12T03:33:31.865Z,100942.37
2023-07-12T03:35:59.629Z,100958.61
2023-07-12T03:38:27.699Z,100993.30
2023-07-12T03:40:59.753Z,101014.13
2023-07-12T03:43:27.518Z,101018.77
2023-07-12T03:45:55.265Z,101005.35
2023-07-12T03:48:24.692Z,100964.42
2023-07-12T03:50:54.190Z,100928.10
2023-07-12T03:53:21.764Z,100894.74
2023-07-12T03:55:49.620Z,100851.80
2023-07-12T03:58:19.469Z,100819.05
2023-07-12T04:00:49.449Z,100749.83
2023-07-12T04:03:18.440Z,100669.75
2023-07-12T04:05:50.074Z,100617.92
2023-07-12T04:08:18.578Z,100558.37
2023-07-12T04:10:46.231Z,100501.41
2023-07-12T04:13:13.786Z,100406.19
2023-07-12T04:15:41.590Z,100323.50
2023-07-12T04:18:09.366Z,100280.59
2023-07-12T04:20:40.149Z,100272.15
2023-07-12T04:23:07.946Z,100272.79
2023-07-12T04:25:35.474Z,100280.10
2023-07-12T04:28:03.027Z,100291.05
2023-07-12T04:30:30.631Z,100296.83
2023-07-12T04:32:58.277Z,100298.80
2023-07-12T04:35:25.816Z,100303.43
2023-07-12T04:37:53.340Z,100307.10
2023-07-12T04:40:21.649Z,100313.79
2023-07-12T04:42:49.255Z,100331.69
2023-07-12T04:45:17.076Z,100355.83
2023-07-12T04:47:45.418Z,100387.61
2023-07-12T04:50:13.826Z,100411.67
2023-07-12T04:52:41.581Z,100426.34
2023-07-12T04:55:25.235Z,100463.16
2023-07-12T04:57:52.892Z,100486.91
2023-07-12T05:00:21.158Z,100494.45
2023-07-12T05:02:49.557Z,100484.08
2023-07-12T05:05:17.379Z,100477.48
2023-07-12T05:07:45.162Z,100481.12
2023-07-12T05:10:12.755Z,100469.29
2023-07-12T05:12:41.432Z,100469.33
2023-07-12T05:15:09.641Z,100473.11
2023-07-12T05:17:37.529Z,100474.66
2023-07-12T05:20:06.483Z,100481.94
2023-07-12T05:22:34.664Z,100503.55
2023-07-12T05:25:02.892Z,100504.38
2023-07-12T05:27:30.404Z,100498.11
2023-07-12T05:29:58.624Z,100496.41
2023-07-12T05:32:26.066Z,100498.02
2023-07-12T05:34:54.246Z,100484.75
2023-07-12T05:37:21.809Z,100498.77
2023-07-12T05:39:49.777Z,100503.73
2023-07-12T05:43:46.788Z,100496.22
2023-07-12T05:46:14.730Z,100491.26
2023-07-12T05:48:41.524Z,100493.25
2023-07-12T05:51:09.031Z,100494.55
2023-07-12T05:53:36.155Z,100526.39
2023-07-12T05:56:04.861Z,100556.73
2023-07-12T05:58:31.752Z,100564.40
2023-07-12T06:00:59.951Z,100578.67
2023-07-12T06:03:28.085Z,100594.13
2023-07-12T06:05:55.170Z,100584.10
2023-07-12T06:08:24.368Z,100576.66
2023-07-12T06:10:50.936Z,100591.07
2023-07-12T06:13:18.872Z,100589.73
2023-07-12T06:15:45.813Z,100580.05
2023-07-12T06:18:14.395Z,100600.92
2023-07-12T06:20:41.271Z,100613.45
2023-07-12T06:23:08.121Z,100632.86
2023-07-12T06:25:34.922Z,100626.50
2023-07-12T06:28:04.435Z,100619.80
2023-07-12T06:30:31.471Z,100607.40
2023-07-12T06:32:58.452Z,100609.55
2023-07-12T06:35:27.001Z,100621.70
2023-07-12T06:37:54.766Z,100631.09
2023-07-12T06:40:22.019Z,100627.13
2023-07-12T06:42:49.173Z,100572.14
2023-07-12T06:45:16.636Z,100599.51
2023-07-12T06:47:43.408Z,100589.13
2023-07-12T06:50:10.726Z,100597.55
2023-07-12T06:52:38.081Z,100608.60
2023-07-12T06:55:05.525Z,100606.08
2023-07-12T06:57:34.523Z,100539.01
2023-07-12T07:00:08.379Z,100575.67
2023-07-12T07:02:36.525Z,100564.81
2023-07-12T07:05:05.013Z,100541.05
2023-07-12T07:07:32.740Z,100572.23
2023-07-12T07:09:59.710Z,100573.30
2023-07-12T07:12:26.838Z,100603.25
2023-07-12T07:14:54.393Z,100648.00
2023-07-12T07:17:22.059Z,100568.77
2023-07-12T07:19:48.964Z,100580.24
2023-07-12T07:22:16.143Z,100594.20
2023-07-12T07:24:44.521Z,100612.42
2023-07-12T07:27:15.108Z,100620.53
2023-07-12T07:29:43.742Z,100620.38
2023-07-12T07:32:12.427Z,100638.80
2023-07-12T07:34:39.469Z,100644.56
2023-07-12T07:37:06.127Z,100577.20
2023-07-12T07:39:33.763Z,100631.03
2023-07-12T07:42:02.245Z,100576.41
2023-07-12T07:44:31.856Z,100560.02
2023-07-12T07:46:59.620Z,100569.17
2023-07-12T07:49:27.069Z,100484.77
2023-07-12T07:51:55.040Z,100466.48
2023-07-12T07:54:21.720Z,100547.00
2023-07-12T07:56:49.992Z,100651.27
2023-07-12T07:59:17.000Z,100636.86
2023-07-12T08:01:44.249Z,100523.59
2023-07-12T08:04:11.385Z,100329.27
2023-07-12T08:06:39.364Z,100349.02
2023-07-12T08:09:09.543Z,100269.66
2023-07-12T08:11:36.973Z,100386.19
2023-07-12T08:14:04.073Z,100374.62
2023-07-12T08:16:34.326Z,100460.56
2023-07-12T08:19:12.147Z,100587.83
2023-07-12T08:21:44.584Z,100565.45
2023-07-12T08:24:11.326Z,100549.61
2023-07-12T08:26:40.373Z,100536.92
2023-07-12T08:29:10.639Z,100483.92
2023-07-12T08:31:38.663Z,100380.85
2023-07-12T08:34:05.661Z,100407.23
2023-07-12T08:36:32.493Z,100534.00
2023-07-12T08:38:59.536Z,100540.41
2023-07-12T08:41:27.113Z,100630.92
2023-07-12T08:43:54.256Z,100543.54
2023-07-12T08:46:27.322Z,100480.65
2023-07-12T08:48:59.677Z,100517.98
2023-07-12T08:51:31.596Z,100405.23
2023-07-12T08:53:59.034Z,100330.64
2023-07-12T08:56:27.303Z,100431.62
2023-07-12T08:58:54.459Z,100533.05
2023-07-12T09:01:44.718Z,100538.38
2023-07-12T09:04:29.162Z,100403.61
2023-07-12T09:07:01.278Z,100444.80
2023-07-12T09:09:39.160Z,100515.27
2023-07-12T09:12:13.776Z,100472.89
2023-07-12T09:14:43.187Z,100390.35
2023-07-12T09:17:22.890Z,100266.41
2023-07-12T09:19:51.000Z,100323.27
2023-07-12T09:22:18.558Z,100563.84
2023-07-12T09:24:55.946Z,100538.90
2023-07-12T09:27:24.433Z,100292.00
2023-07-12T09:30:02.138Z,100312.15
2023-07-12T09:32:35.071Z,100311.38
2023-07-12T09:35:30.261Z,100002.23
2023-07-12T09:38:01.270Z,100114.23
2023-07-12T09:40:38.203Z,100341.64
2023-07-12T09:43:06.641Z,100372.15
2023-07-12T09:45:35.641Z,100301.59
2023-07-12T09:48:28.777Z,100351.70
2023-07-12T09:51:22.641Z,100351.02
2023-07-12T09:54:17.335Z,100276.69
2023-07-12T09:56:53.189Z,100202.52
2023-07-12T09:59:31.184Z,100478.73
2023-07-12T10:02:21.275Z,100111.84
2023-07-12T10:04:56.538Z,100252.66
2023-07-12T10:07:53.969Z,100458.44
2023-07-12T10:10:44.166Z,100602.40
2023-07-12T10:13:41.157Z,100630.60
2023-07-12T10:16:18.087Z,100609.78
2023-07-12T10:18:45.812Z,100433.60
2023-07-12T10:21:18.445Z,100553.30
2023-07-12T10:23:58.699Z,100393.01
2023-07-12T10:26:25.737Z,100436.27
2023-07-12T10:28:56.051Z,100313.70
2023-07-12T10:31:56.188Z,100191.01
2023-07-12T10:34:30.927Z,100364.13
2023-07-12T10:37:06.855Z,100447.27
2023-07-12T10:39:34.515Z,100496.55
2023-07-12T10:42:07.410Z,100538.70
2023-07-12T10:44:40.896Z,100350.61
2023-07-12T10:47:11.699Z,100319.05
2023-07-12T10:49:53.418Z,100252.30
2023-07-12T10:52:33.620Z,100066.86
2023-07-12T10:55:04.125Z,100186.42
2023-07-12T10:57:48.659Z,100268.42
2023-07-12T11:00:31.400Z,100118.65
2023-07-12T11:03:03.559Z,100059.95
2023-07-12T11:05:41.760Z,100230.63
2023-07-12T11:08:30.712Z,100226.17
2023-07-12T11:11:10.460Z,100217.79
2023-07-12T11:13:43.041Z,100212.61
2023-07-12T11:16:16.092Z,100143.50
2023-07-12T11:18:57.265Z,100146.19
2023-07-12T11:21:51.308Z,100416.94
2023-07-12T11:24:53.554Z,100441.13
2023-07-12T11:27:44.256Z,100526.00
2023-07-12T11:30:35.105Z,100409.90
2023-07-12T11:33:18.281Z,100270.09
2023-07-12T11:35:58.332Z,100236.86
2023-07-12T11:38:35.519Z,100121.55
2023-07-12T11:41:05.244Z,99947.73
2023-07-12T11:43:38.624Z,99938.98
2023-07-12T11:46:14.679Z,100114.14
2023-07-12T11:48:45.729Z,100261.74
2023-07-12T11:51:16.533Z,100324.63
2023-07-12T11:53:52.305Z,100245.51
2023-07-12T11:56:19.762Z,100348.25
2023-07-12T11:58:46.812Z,100263.72
2023-07-12T12:01:18.549Z,100248.45
2023-07-12T12:03:48.662Z,100177.91
2023-07-12T12:06:15.837Z,100170.66
2023-07-12T12:08:48.510Z,100296.53
2023-07-12T12:11:16.494Z,100379.20
2023-07-12T12:13:53.987Z,100467.75
2023-07-12T12:16:29.207Z,100098.64
2023-07-12T12:18:59.432Z,100336.76
2023-07-12T12:21:27.367Z,100489.23
2023-07-12T12:24:04.477Z,100389.28
2023-07-12T12:26:33.079Z,100397.30
2023-07-12T12:29:01.338Z,100356.81
2023-07-12T12:31:32.096Z,100381.98
2023-07-12T12:34:17.061Z,100316.88
2023-07-12T12:37:01.303Z,100044.03
2023-07-12T12:39:28.635Z,99868.30
2023-07-12T12:41:58.955Z,99708.39
2023-07-12T12:44:35.335Z,99657.03
2023-07-12T13:01:59.614Z,100042.96
2023-07-12T13:05:28.284Z,100011.17
2023-07-12T13:20:48.393Z,100087.83
2023-07-12T13:23:22.827Z,99984.73
2023-07-12T13:25:51.869Z,99932.05
2023-07-12T13:28:18.918Z,99914.29
2023-07-12T13:30:45.768Z,100067.66
2023-07-12T13:33:15.673Z,100131.59
2023-07-12T13:40:44.580Z,99967.02
2023-07-12T13:44:35.525Z,100066.88
2023-07-12T13:46:01.804Z,100115.35
2023-07-12T13:48:29.259Z,100159.84
2023-07-12T13:50:56.846Z,100119.38
2023-07-12T13:53:24.606Z,100219.45
2023-07-12T13:56:00.281Z,100275.98
2023-07-12T13:58:32.098Z,100038.34
2023-07-12T14:03:32.800Z,100320.03
2023-07-12T14:06:06.066Z,100205.04
2023-07-12T14:08:37.644Z,100221.81
2023-07-12T14:11:08.837Z,100156.41
2023-07-12T14:13:37.337Z,100115.00
2023-07-12T14:16:04.887Z,100185.30
2023-07-12T14:18:32.760Z,100289.64
2023-07-12T14:21:00.317Z,100238.66
2023-07-12T14:23:27.477Z,100363.73
2023-07-12T14:25:54.512Z,100368.11
2023-07-12T14:28:21.765Z,100198.80
2023-07-12T14:31:02.967Z,100206.52
2023-07-12T14:33:37.542Z,100274.19
2023-07-12T14:36:05.760Z,100009.58
2023-07-12T14:38:32.787Z,100032.43
2023-07-12T14:41:00.049Z,99985.20
2023-07-12T14:43:27.084Z,99855.35
2023-07-12T14:45:53.952Z,100117.15
2023-07-12T14:48:20.873Z,99992.76
2023-07-12T14:50:49.921Z,100052.87
2023-07-12T14:53:22.848Z,100049.96
2023-07-12T14:55:49.803Z,99790.53
2023-07-12T14:58:20.838Z,99671.53
2023-07-12T15:00:49.630Z,99690.92
2023-07-12T15:03:20.149Z,99815.55
2023-07-12T15:05:47.305Z,99920.95
2023-07-12T15:08:25.003Z,99978.10
2023-07-12T15:10:53.427Z,99954.57
2023-07-12T15:13:20.832Z,99825.34
2023-07-12T15:15:47.886Z,99772.54
2023-07-12T15:18:21.684Z,99912.71
2023-07-12T15:20:54.880Z,99938.67
2023-07-12T15:23:32.593Z,99885.25
2023-07-12T15:26:00.015Z,99901.70
2023-07-12T15:28:27.190Z,99804.50
2023-07-12T15:30:54.252Z,99648.61
2023-07-12T15:33:25.995Z,99685.17
2023-07-12T15:35:53.880Z,99733.70
2023-07-12T15:38:23.342Z,99698.44
2023-07-12T15:40:59.039Z,99581.60
2023-07-12T15:43:35.970Z,99485.92
2023-07-12T15:46:04.125Z,99568.64
2023-07-12T15:48:33.541Z,99739.40
2023-07-12T15:51:20.976Z,99853.85
2023-07-12T15:53:51.291Z,99964.02
2023-07-12T15:56:23.984Z,99955.81
2023-07-12T15:58:51.231Z,99987.13
2023-07-12T16:01:29.027Z,100029.30
2023-07-12T16:03:56.889Z,100053.68
2023-07-12T16:06:24.647Z,100012.05
2023-07-12T16:08:52.612Z,100013.05
2023-07-12T16:11:29.609Z,100051.33
2023-07-12T16:14:00.854Z,100094.31
2023-07-12T16:16:31.552Z,100009.52
2023-07-12T16:18:58.730Z,100000.31
2023-07-12T16:21:29.725Z,100039.70
2023-07-12T16:24:00.452Z,100017.49
2023-07-12T16:26:34.462Z,99903.48
2023-07-12T16:29:10.252Z,99898.60
2023-07-12T16:31:44.252Z,99843.90
2023-07-12T16:34:15.621Z,99878.23
2023-07-12T16:36:44.195Z,99821.71
2023-07-12T16:39:12.672Z,99856.14
2023-07-12T16:41:39.825Z,99911.38
2023-07-12T16:44:13.934Z,100016.03
2023-07-12T16:46:41.384Z,100064.22
2023-07-12T16:49:10.797Z,100051.91
2023-07-12T16:52:00.435Z,99976.25
2023-07-12T16:54:28.648Z,100037.23
2023-07-12T16:56:55.982Z,100109.27
2023-07-12T16:59:24.885Z,100170.70
2023-07-12T17:01:51.714Z,100137.09
2023-07-12T17:04:19.405Z,100150.28
2023-07-12T17:06:48.318Z,100156.34
2023-07-12T17:09:23.377Z,100230.52
2023-07-12T17:11:51.591Z,100254.71
2023-07-12T17:14:18.430Z,100324.58
2023-07-12T17:16:45.630Z,100366.19
2023-07-12T17:19:12.731Z,100455.33
2023-07-12T17:21:40.182Z,100556.75
2023-07-12T17:24:12.384Z,100609.02
2023-07-12T17:26:39.395Z,100653.80
2023-07-12T17:29:06.223Z,100643.15
2023-07-12T17:31:37.421Z,100669.11
2023-07-12T17:34:18.374Z,100741.66
2023-07-12T17:36:46.488Z,100820.14
2023-07-12T17:39:13.372Z,100924.67
2023-07-12T17:41:40.318Z,101029.93
2023-07-12T17:44:11.770Z,101142.34
2023-07-12T17:46:39.699Z,101217.73
2023-07-12T17:49:06.778Z,101228.98
2023-07-12T17:51:34.133Z,101109.15
2023-07-12T17:54:01.648Z,100898.92
2023-07-12T17:56:28.733Z,100835.75
2023-07-12T18:01:53.490Z,100769.95
2023-07-12T18:04:20.607Z,100712.10
2023-07-12T18:06:47.568Z,100667.16
2023-07-12T18:09:15.814Z,100640.88
2023-07-12T18:11:46.291Z,100617.55
2023-07-12T18:14:22.213Z,100591.33
2023-07-12T18:16:49.656Z,100567.17
2023-07-12T18:19:16.922Z,100541.37
2023-07-12T18:21:44.046Z,100517.98
2023-07-12T18:24:23.192Z,100504.33
2023-07-12T18:26:50.414Z,100495.39
2023-07-12T18:29:17.679Z,100496.42
2023-07-12T18:31:44.814Z,100508.16
2023-07-12T18:34:12.110Z,100526.61
2023-07-12T18:36:40.974Z,100554.17
2023-07-12T18:39:08.328Z,100597.14
2023-07-12T18:41:35.677Z,100645.95
2023-07-12T18:44:03.447Z,100695.92
2023-07-12T18:46:31.209Z,100745.39
2023-07-12T18:48:58.255Z,100777.67
2023-07-12T18:51:27.861Z,100809.40
2023-07-12T18:53:54.695Z,100843.05
2023-07-12T18:56:26.493Z,100878.05
2023-07-12T18:58:54.042Z,100911.91
2023-07-12T19:01:25.525Z,100934.34
2023-07-12T19:03:52.704Z,100956.29
2023-07-12T19:06:24.616Z,100979.08
2023-07-12T19:08:51.882Z,101001.13
2023-07-12T19:11:46.027Z,101019.48
2023-07-12T19:14:19.460Z,101045.02
2023-07-12T19:16:46.993Z,101062.15
2023-07-12T19:19:14.114Z,101070.11
2023-07-12T19:21:44.892Z,101076.43
2023-07-12T19:24:11.891Z,101088.43
2023-07-12T19:26:39.147Z,101092.34
2023-07-12T19:29:06.000Z,101093.99
2023-07-12T19:31:43.842Z,101095.67
2023-07-12T19:34:16.462Z,101099.05
2023-07-12T19:36:47.102Z,101101.01
2023-07-12T19:39:15.985Z,101103.35
2023-07-12T19:41:43.145Z,101103.77
2023-07-12T19:44:12.535Z,101103.79
2023-07-12T19:46:39.712Z,101096.14
2023-07-12T19:49:06.628Z,101090.39
2023-07-12T19:51:34.806Z,101081.36
2023-07-12T19:54:03.201Z,101075.52
2023-07-12T19:56:30.939Z,101071.94
2023-07-12T19:58:59.114Z,101068.16
2023-07-12T20:01:27.373Z,101061.90
2023-07-12T20:03:55.664Z,101054.02
2023-07-12T20:06:23.122Z,101046.22
2023-07-12T20:08:51.293Z,101037.56
2023-07-12T20:11:18.250Z,101027.56
2023-07-12T20:13:45.593Z,101015.42
2023-07-12T20:16:13.146Z,101006.66
2023-07-12T20:18:41.731Z,101004.16
2023-07-12T20:21:09.092Z,101005.63
2023-07-12T20:23:36.089Z,101004.86
2023-07-12T20:26:02.979Z,101002.15
2023-07-12T20:28:30.545Z,101000.14
2023-07-12T20:30:58.529Z,100995.99
2023-07-12T20:33:27.095Z,100998.59
2023-07-12T20:35:54.026Z,100996.45
2023-07-12T20:38:22.724Z,100993.09
2023-07-12T20:40:50.097Z,100988.02
2023-07-12T20:43:17.934Z,100984.56
2023-07-12T20:45:46.107Z,100982.69
2023-07-12T20:48:13.171Z,100984.81
2023-07-12T20:50:41.116Z,100988.35
2023-07-12T20:53:09.187Z,100980.77
2023-07-12T20:55:36.651Z,100990.55
2023-07-12T20:58:11.678Z,101000.05
2023-07-12T21:00:48.081Z,101008.36
2023-07-12T21:03:15.898Z,101017.36
2023-07-12T21:05:47.115Z,101021.66
2023-07-12T21:08:15.952Z,101024.34
2023-07-12T21:10:43.917Z,101027.35
2023-07-12T21:13:10.965Z,101033.20
2023-07-12T21:15:41.186Z,101032.60
2023-07-12T21:18:08.180Z,101032.98
2023-07-12T21:20:35.995Z,101034.26
2023-07-12T21:23:03.637Z,101031.05
2023-07-12T21:25:31.225Z,101029.11
2023-07-12T21:27:58.276Z,101034.66
2023-07-12T21:30:24.938Z,101037.20
2023-07-12T21:32:51.887Z,101043.90
2023-07-12T21:35:20.637Z,101051.82
2023-07-12T21:37:47.425Z,101058.57
2023-07-12T21:40:14.620Z,101061.67
2023-07-12T21:42:43.924Z,101064.41
2023-07-12T21:45:11.075Z,101067.13
2023-07-12T21:47:39.507Z,101072.45
2023-07-12T21:50:06.856Z,101076.90
2023-07-12T21:52:46.235Z,101080.80
2023-07-12T21:55:15.753Z,101085.75
2023-07-12T21:57:42.889Z,101093.05
2023-07-12T22:00:16.138Z,101096.08
2023-07-12T22:02:43.875Z,101097.21
2023-07-12T22:05:10.999Z,101096.91
2023-07-12T22:07:40.492Z,101094.39
2023-07-12T22:10:14.105Z,101095.66
2023-07-12T22:12:43.263Z,101089.66
2023-07-12T22:15:10.956Z,101083.52
2023-07-12T22:17:42.050Z,101080.81
2023-07-12T22:20:12.078Z,101076.93
2023-07-12T22:22:40.632Z,101077.37
2023-07-12T22:25:11.017Z,101071.04
2023-07-12T22:27:38.374Z,101067.80
2023-07-12T22:30:06.040Z,101065.82
2023-07-12T22:32:33.104Z,101064.13
2023-07-12T22:35:00.037Z,101059.70
2023-07-12T22:37:28.708Z,101056.95
2023-07-12T22:39:57.609Z,101050.54
2023-07-12T22:42:24.349Z,101042.55
2023-07-12T22:44:51.233Z,101035.64
2023-07-12T22:47:18.445Z,101035.48
2023-07-12T22:49:45.374Z,101033.06
2023-07-12T22:52:12.627Z,101030.29
2023-07-12T22:54:39.981Z,101024.39
2023-07-12T22:57:07.131Z,101020.17
2023-07-12T22:59:34.179Z,101015.84
2023-07-12T23:02:01.122Z,101016.88
2023-07-12T23:04:28.267Z,101017.58
2023-07-12T23:06:55.315Z,101016.56
2023-07-12T23:09:22.465Z,101011.36
2023-07-12T23:11:50.051Z,101012.22
2023-07-12T23:14:17.172Z,101007.86
2023-07-12T23:16:44.448Z,101005.27
2023-07-12T23:19:11.368Z,101009.27
2023-07-12T23:21:38.205Z,101012.23
2023-07-12T23:24:06.836Z,101014.70
2023-07-12T23:26:33.934Z,101017.85
2023-07-12T23:29:03.576Z,101022.25
2023-07-12T23:31:30.603Z,101020.73
2023-07-12T23:34:00.293Z,101024.06
2023-07-12T23:36:27.513Z,101023.59
2023-07-12T23:38:55.721Z,101022.94
2023-07-12T23:41:23.189Z,101020.02
2023-07-12T23:43:50.300Z,101009.48
2023-07-12T23:46:17.683Z,101008.70
2023-07-12T23:48:44.729Z,101014.17
2023-07-12T23:51:13.824Z,101017.74
2023-07-12T23:53:41.071Z,101024.21
2023-07-12T23:56:13.721Z,101025.34
2023-07-12T23:58:46.653Z,101022.61
